createdAt,value
2017-04-26T00:00:53.994Z,0
2017-04-26T00:02:54.025Z,0
2017-04-26T00:03:54.046Z,0
2017-04-26T00:04:54.064Z,0
2017-04-26T00:06:08.692Z,0
2017-04-26T00:06:54.097Z,0
2017-04-26T00:07:54.123Z,0
2017-04-26T00:08:54.135Z,0
2017-04-26T00:09:54.177Z,0
2017-04-26T00:10:54.169Z,0
2017-04-26T00:11:54.182Z,0
2017-04-26T00:12:54.203Z,0
2017-04-26T00:13:54.219Z,0
2017-04-26T00:14:54.242Z,0
2017-04-26T00:16:08.869Z,0
2017-04-26T00:17:08.887Z,0
2017-04-26T00:17:54.295Z,0
2017-04-26T00:20:08.946Z,0
2017-04-26T00:20:54.039Z,0
2017-04-26T00:22:08.975Z,0
2017-04-26T00:22:54.374Z,0
2017-04-26T00:23:54.401Z,0
2017-04-26T00:24:54.412Z,0
2017-04-26T00:25:54.128Z,0
2017-04-26T00:26:53.838Z,0
2017-04-26T00:27:54.171Z,0
2017-04-26T00:28:54.184Z,0
2017-04-26T00:29:54.507Z,0
2017-04-26T00:30:54.514Z,0
2017-04-26T00:31:54.231Z,0
2017-04-26T00:32:54.561Z,0
2017-04-26T00:34:09.185Z,0
2017-04-26T00:34:54.283Z,0
2017-04-26T00:35:54.612Z,0
2017-04-26T00:36:54.316Z,0
2017-04-26T00:38:09.252Z,0
2017-04-26T00:38:54.660Z,0
2017-04-26T00:39:54.672Z,0
2017-04-26T00:40:54.691Z,0
2017-04-26T00:41:54.407Z,0
2017-04-26T00:42:54.726Z,0
2017-04-26T00:43:54.747Z,0
2017-04-26T00:46:09.440Z,0
2017-04-26T00:46:54.799Z,0
2017-04-26T00:47:54.811Z,0
2017-04-26T00:48:54.830Z,0
2017-04-26T00:49:54.845Z,0
2017-04-26T00:51:54.878Z,0
2017-04-26T00:54:09.536Z,0
2017-04-26T00:54:54.935Z,0
2017-04-26T00:55:54.646Z,0
2017-04-26T00:56:54.969Z,0
2017-04-26T00:57:54.987Z,0
2017-04-26T00:58:55.005Z,0
2017-04-26T01:00:09.638Z,0
2017-04-26T01:00:55.037Z,0
2017-04-26T01:01:55.051Z,0
2017-04-26T01:02:55.074Z,0
2017-04-26T01:03:55.088Z,0
2017-04-26T01:04:55.106Z,0
2017-04-26T01:05:55.124Z,0
2017-04-26T01:06:55.144Z,0
2017-04-26T01:07:55.159Z,0
2017-04-26T01:09:09.806Z,0
2017-04-26T01:09:55.195Z,0
2017-04-26T01:10:55.206Z,0
2017-04-26T01:11:55.225Z,0
2017-04-26T01:13:09.862Z,0
2017-04-26T01:13:55.256Z,0
2017-04-26T01:14:55.280Z,0
2017-04-26T01:15:55.293Z,0
2017-04-26T01:16:55.309Z,0
2017-04-26T01:17:55.331Z,0
2017-04-26T01:18:55.347Z,0
2017-04-26T01:20:09.980Z,0
2017-04-26T01:20:55.384Z,0
2017-04-26T01:22:10.013Z,0
2017-04-26T01:22:55.109Z,0
2017-04-26T01:23:55.132Z,0
2017-04-26T01:24:55.450Z,0
2017-04-26T01:25:55.465Z,0
2017-04-26T01:26:55.487Z,0
2017-04-26T01:27:55.500Z,0
2017-04-26T01:29:10.136Z,0
2017-04-26T01:29:55.532Z,0
2017-04-26T01:30:55.551Z,0
2017-04-26T01:31:55.565Z,0
2017-04-26T01:33:10.200Z,0
2017-04-26T01:34:10.217Z,0
2017-04-26T01:34:55.618Z,0
2017-04-26T01:35:55.638Z,0
2017-04-26T01:36:55.649Z,0
2017-04-26T01:38:10.314Z,0
2017-04-26T01:38:55.692Z,0
2017-04-26T01:39:55.710Z,0
2017-04-26T01:41:10.031Z,0
2017-04-26T01:41:55.740Z,0
2017-04-26T01:42:55.759Z,0
2017-04-26T01:43:55.776Z,0
2017-04-26T01:44:55.792Z,0
2017-04-26T01:45:55.807Z,0
2017-04-26T01:46:55.824Z,0
2017-04-26T01:47:55.842Z,0
2017-04-26T01:48:55.859Z,0
2017-04-26T01:49:55.876Z,0
2017-04-26T01:50:55.887Z,0
2017-04-26T01:51:55.912Z,0
2017-04-26T01:53:55.946Z,0
2017-04-26T01:54:55.659Z,0
2017-04-26T01:55:55.976Z,0
2017-04-26T01:57:10.305Z,0
2017-04-26T01:57:56.010Z,0
2017-04-26T01:58:56.029Z,0
2017-04-26T01:59:56.046Z,0
2017-04-26T02:00:56.058Z,0
2017-04-26T02:01:56.078Z,0
2017-04-26T02:02:56.096Z,0
2017-04-26T02:04:10.731Z,0
2017-04-26T02:04:56.131Z,0
2017-04-26T02:05:56.144Z,0
2017-04-26T02:06:56.161Z,0
2017-04-26T02:07:56.180Z,0
2017-04-26T02:08:56.201Z,0
2017-04-26T02:10:10.828Z,0
2017-04-26T02:10:56.231Z,0
2017-04-26T02:11:56.243Z,0
2017-04-26T02:13:10.915Z,0
2017-04-26T02:13:56.299Z,0
2017-04-26T02:14:56.295Z,0
2017-04-26T02:15:56.311Z,0
2017-04-26T02:16:56.328Z,0
2017-04-26T02:17:56.353Z,0
2017-04-26T02:18:56.363Z,0
2017-04-26T02:19:56.390Z,0
2017-04-26T02:20:56.393Z,0
2017-04-26T02:22:11.026Z,0
2017-04-26T02:22:56.430Z,0
2017-04-26T02:23:56.444Z,0
2017-04-26T02:24:56.469Z,0
2017-04-26T02:25:56.480Z,0
2017-04-26T02:26:56.498Z,0
2017-04-26T02:27:56.516Z,0
2017-04-26T02:29:11.149Z,0
2017-04-26T02:29:56.547Z,0
2017-04-26T02:30:56.561Z,0
2017-04-26T02:31:56.578Z,0
2017-04-26T02:32:56.600Z,0
2017-04-26T02:33:56.612Z,0
2017-04-26T02:34:56.626Z,0
2017-04-26T02:35:56.643Z,0
2017-04-26T02:37:11.277Z,0
2017-04-26T02:37:56.687Z,0
2017-04-26T02:38:56.393Z,0
2017-04-26T02:40:11.326Z,0
2017-04-26T02:42:56.461Z,0
2017-04-26T02:44:11.396Z,0
2017-04-26T02:44:56.798Z,0
2017-04-26T02:45:56.823Z,0
2017-04-26T02:46:56.835Z,0
2017-04-26T02:48:11.466Z,0
2017-04-26T02:48:56.865Z,0
2017-04-26T02:49:56.911Z,0
2017-04-26T02:50:56.894Z,0
2017-04-26T02:51:56.912Z,0
2017-04-26T02:52:56.934Z,0
2017-04-26T02:53:56.947Z,0
2017-04-26T02:54:56.964Z,0
2017-04-26T02:56:11.598Z,0
2017-04-26T02:56:56.994Z,0
2017-04-26T02:57:57.023Z,0
2017-04-26T02:59:57.048Z,0
2017-04-26T03:00:57.064Z,0
2017-04-26T03:01:57.079Z,0
2017-04-26T03:02:56.798Z,0
2017-04-26T03:03:57.122Z,0
2017-04-26T03:04:57.130Z,0
2017-04-26T03:05:56.539Z,0
2017-04-26T03:06:57.164Z,0
2017-04-26T03:07:57.181Z,0
2017-04-26T03:08:57.195Z,0
2017-04-26T03:09:57.218Z,0
2017-04-26T03:11:57.246Z,0
2017-04-26T03:12:57.265Z,4
2017-04-26T03:13:57.281Z,4
2017-04-26T03:14:57.335Z,4
2017-04-26T03:16:11.936Z,0
2017-04-26T03:16:57.329Z,4
2017-04-26T03:17:57.349Z,4
2017-04-26T03:18:57.363Z,4
2017-04-26T03:19:57.079Z,4
2017-04-26T03:20:57.393Z,4
2017-04-26T03:22:12.036Z,4
2017-04-26T03:22:57.430Z,8
2017-04-26T03:24:57.464Z,8
2017-04-26T03:25:57.483Z,12
2017-04-26T03:27:12.114Z,16
2017-04-26T03:27:57.527Z,16
2017-04-26T03:29:57.561Z,20
2017-04-26T03:30:57.564Z,28
2017-04-26T03:32:12.197Z,32
2017-04-26T03:32:57.611Z,32
2017-04-26T03:33:57.617Z,36
2017-04-26T03:34:57.637Z,44
2017-04-26T03:35:57.659Z,48
2017-04-26T03:36:57.663Z,56
2017-04-26T03:37:57.686Z,60
2017-04-26T03:39:12.311Z,68
2017-04-26T03:40:12.327Z,76
2017-04-26T03:41:12.345Z,84
2017-04-26T03:41:57.744Z,88
2017-04-26T03:42:57.481Z,100
2017-04-26T03:43:57.781Z,112
2017-04-26T03:45:12.408Z,128
2017-04-26T03:45:57.825Z,140
2017-04-26T03:46:57.827Z,164
2017-04-26T03:48:12.458Z,196
2017-04-26T03:48:57.861Z,212
2017-04-26T03:49:57.881Z,236
2017-04-26T03:50:57.899Z,256
2017-04-26T03:51:57.910Z,280
2017-04-26T03:52:57.926Z,304
2017-04-26T03:53:57.944Z,332
2017-04-26T03:54:57.960Z,360
2017-04-26T03:55:57.978Z,392
2017-04-26T03:56:57.998Z,412
2017-04-26T03:57:58.014Z,436
2017-04-26T03:58:58.026Z,460
2017-04-26T03:59:58.047Z,496
2017-04-26T04:00:58.056Z,540
2017-04-26T04:02:12.690Z,604
2017-04-26T04:02:58.087Z,656
2017-04-26T04:04:12.417Z,740
2017-04-26T04:04:58.125Z,792
2017-04-26T04:05:58.142Z,852
2017-04-26T04:06:58.158Z,880
2017-04-26T04:07:58.184Z,904
2017-04-26T04:08:58.193Z,928
2017-04-26T04:09:58.204Z,960
2017-04-26T04:10:58.220Z,1000
2017-04-26T04:11:58.240Z,1064
2017-04-26T04:13:12.869Z,1160
2017-04-26T04:13:58.285Z,1236
2017-04-26T04:14:58.289Z,1352
2017-04-26T04:16:12.919Z,1520
2017-04-26T04:16:58.323Z,1612
2017-04-26T04:17:58.339Z,1688
2017-04-26T04:19:12.969Z,1728
2017-04-26T04:19:58.373Z,1736
2017-04-26T04:20:58.391Z,1736
2017-04-26T04:21:58.402Z,1740
2017-04-26T04:22:58.415Z,1728
2017-04-26T04:23:58.436Z,1696
2017-04-26T04:24:58.453Z,1676
2017-04-26T04:25:58.467Z,1684
2017-04-26T04:27:13.100Z,1768
2017-04-26T04:27:58.510Z,1844
2017-04-26T04:28:58.519Z,1968
2017-04-26T04:29:58.530Z,2100
2017-04-26T04:30:58.550Z,2204
2017-04-26T04:32:58.580Z,2348
2017-04-26T04:34:58.618Z,2464
2017-04-26T04:35:58.639Z,2560
2017-04-26T04:36:58.649Z,2692
2017-04-26T04:37:58.368Z,2824
2017-04-26T04:38:58.683Z,3016
2017-04-26T04:39:58.697Z,3160
2017-04-26T04:40:58.719Z,3316
2017-04-26T04:41:58.732Z,3504
2017-04-26T04:42:58.747Z,3720
2017-04-26T04:43:58.766Z,3840
2017-04-26T04:45:13.395Z,4024
2017-04-26T04:46:13.411Z,4512
2017-04-26T04:47:58.837Z,4324
2017-04-26T04:48:58.549Z,4820
2017-04-26T04:49:58.865Z,5380
2017-04-26T04:51:13.497Z,9616
2017-04-26T04:51:58.594Z,12520
2017-04-26T04:52:58.914Z,14656
2017-04-26T04:53:58.629Z,17504
2017-04-26T04:54:58.945Z,14976
2017-04-26T04:55:58.966Z,17376
2017-04-26T04:56:58.982Z,15232
2017-04-26T04:57:58.998Z,11224
2017-04-26T04:58:59.017Z,12476
2017-04-26T04:59:59.038Z,12668
2017-04-26T05:00:59.052Z,13920
2017-04-26T05:01:59.071Z,13228
2017-04-26T05:03:13.708Z,16256
2017-04-26T05:03:59.113Z,11148
2017-04-26T05:04:58.823Z,14208
2017-04-26T05:05:59.144Z,26496
2017-04-26T05:07:13.779Z,29184
2017-04-26T05:07:59.183Z,30400
2017-04-26T05:08:59.204Z,32320
2017-04-26T05:09:58.917Z,35552
2017-04-26T05:10:59.241Z,29792
2017-04-26T05:11:59.259Z,29344
2017-04-26T05:12:59.281Z,32640
2017-04-26T05:13:59.297Z,32064
2017-04-26T05:14:59.018Z,25024
2017-04-26T05:15:59.338Z,26016
2017-04-26T05:16:59.362Z,19648
2017-04-26T05:17:59.414Z,17472
2017-04-26T05:18:59.403Z,20416
2017-04-26T05:20:59.448Z,15424
2017-04-26T05:21:59.466Z,15232
2017-04-26T05:23:14.105Z,14912
2017-04-26T05:23:59.512Z,15008
2017-04-26T05:24:59.536Z,14912
2017-04-26T05:25:59.558Z,15296
2017-04-26T05:26:59.575Z,15488
2017-04-26T05:27:59.593Z,15392
2017-04-26T05:29:14.235Z,13976
2017-04-26T05:30:14.254Z,13800
2017-04-26T05:30:59.355Z,14912
2017-04-26T05:32:13.991Z,15488
2017-04-26T05:32:59.703Z,15968
2017-04-26T05:33:59.731Z,15776
2017-04-26T05:34:59.751Z,15328
2017-04-26T05:35:59.767Z,15328
2017-04-26T05:39:14.142Z,17408
2017-04-26T05:39:59.853Z,18304
2017-04-26T05:40:59.870Z,18464
2017-04-26T05:41:59.889Z,18240
2017-04-26T05:42:59.922Z,19392
2017-04-26T05:43:59.935Z,19168
2017-04-26T05:44:59.956Z,18976
2017-04-26T05:45:59.976Z,20736
2017-04-26T05:47:00.005Z,21344
2017-04-26T05:48:00.024Z,20576
2017-04-26T05:49:00.040Z,19520
2017-04-26T05:50:00.087Z,20960
2017-04-26T05:51:00.086Z,22336
2017-04-26T05:52:00.104Z,22144
2017-04-26T05:53:00.131Z,25600
2017-04-26T05:54:14.463Z,29184
2017-04-26T05:54:59.874Z,34880
2017-04-26T05:57:00.217Z,38464
2017-04-26T05:58:14.559Z,36096
2017-04-26T05:59:00.260Z,32480
2017-04-26T06:00:00.284Z,38592
2017-04-26T06:01:00.004Z,39872
2017-04-26T06:02:00.333Z,42080
2017-04-26T06:03:00.353Z,48032
2017-04-26T06:04:00.377Z,53728
2017-04-26T06:05:14.716Z,43936
2017-04-26T06:06:15.040Z,45184
2017-04-26T06:07:00.454Z,47104
2017-04-26T06:08:00.171Z,53088
2017-04-26T06:09:00.189Z,72576
2017-04-26T06:10:00.521Z,78208
2017-04-26T06:11:00.542Z,81184
2017-04-26T06:12:00.569Z,80480
2017-04-26T06:13:00.593Z,76448
2017-04-26T06:14:00.623Z,70848
2017-04-26T06:15:00.645Z,64064
2017-04-26T06:16:00.667Z,65856
2017-04-26T06:17:00.539Z,61024
2017-04-26T06:18:15.337Z,63456
2017-04-26T06:19:00.748Z,61568
2017-04-26T06:20:00.774Z,66272
2017-04-26T06:21:15.117Z,67520
2017-04-26T06:23:00.855Z,72800
2017-04-26T06:24:00.886Z,63808
2017-04-26T06:25:00.913Z,72672
2017-04-26T06:26:15.563Z,78912
2017-04-26T06:27:00.971Z,80608
2017-04-26T06:28:01.002Z,79360
2017-04-26T06:29:01.027Z,79392
2017-04-26T06:30:01.065Z,79104
2017-04-26T06:31:01.084Z,77760
2017-04-26T06:32:01.118Z,76192
2017-04-26T06:33:00.846Z,75360
2017-04-26T06:34:15.491Z,74496
2017-04-26T06:35:01.208Z,77472
2017-04-26T06:36:01.241Z,76576
2017-04-26T06:37:15.884Z,75616
2017-04-26T06:39:15.948Z,77280
2017-04-26T06:40:01.359Z,79424
2017-04-26T06:41:01.395Z,75776
2017-04-26T06:42:16.043Z,75840
2017-04-26T06:43:01.464Z,78624
2017-04-26T06:44:01.490Z,75264
2017-04-26T06:45:01.523Z,70528
2017-04-26T06:46:01.553Z,69248
2017-04-26T06:47:01.587Z,71040
2017-04-26T06:48:01.617Z,71584
2017-04-26T06:49:01.650Z,71488
2017-04-26T06:51:16.336Z,73728
2017-04-26T06:52:16.367Z,74048
2017-04-26T06:53:16.401Z,74016
2017-04-26T06:54:01.813Z,74400
2017-04-26T06:56:01.888Z,67296
2017-04-26T06:58:15.961Z,70400
2017-04-26T06:59:01.994Z,70848
2017-04-26T07:00:02.017Z,69280
2017-04-26T07:01:02.057Z,66656
2017-04-26T07:02:02.086Z,66496
2017-04-26T07:03:02.115Z,66336
2017-04-26T07:04:01.848Z,67520
2017-04-26T07:05:01.887Z,66496
2017-04-26T07:06:02.225Z,65696
2017-04-26T07:07:02.254Z,66464
2017-04-26T07:08:16.905Z,66720
2017-04-26T07:10:02.357Z,68832
2017-04-26T07:11:02.088Z,67072
2017-04-26T07:12:02.425Z,64672
2017-04-26T07:13:02.456Z,66400
2017-04-26T07:14:16.809Z,64096
2017-04-26T07:15:02.536Z,66240
2017-04-26T07:16:02.575Z,68224
2017-04-26T07:17:02.292Z,64384
2017-04-26T07:18:02.631Z,63616
2017-04-26T07:19:02.361Z,62080
2017-04-26T07:20:02.699Z,63200
2017-04-26T07:21:02.742Z,66208
2017-04-26T07:22:17.390Z,65760
2017-04-26T07:23:02.505Z,68992
2017-04-26T07:24:17.457Z,67456
2017-04-26T07:25:02.572Z,66528
2017-04-26T07:26:17.528Z,67968
2017-04-26T07:28:02.977Z,66560
2017-04-26T07:29:17.633Z,68384
2017-04-26T07:30:17.676Z,67744
2017-04-26T07:31:03.086Z,69760
2017-04-26T07:32:03.120Z,67776
2017-04-26T07:33:03.151Z,61248
2017-04-26T07:34:03.189Z,64288
2017-04-26T07:35:03.224Z,68512
2017-04-26T07:36:03.265Z,63872
2017-04-26T07:37:17.608Z,61952
2017-04-26T07:38:03.336Z,65952
2017-04-26T07:39:03.364Z,66400
2017-04-26T07:40:03.394Z,66400
2017-04-26T07:41:03.133Z,65664
2017-04-26T07:43:03.502Z,67072
2017-04-26T07:44:03.535Z,66656
2017-04-26T07:46:03.612Z,65184
2017-04-26T07:48:03.374Z,65792
2017-04-26T07:49:03.710Z,65696
2017-04-26T07:50:03.744Z,66912
2017-04-26T07:51:03.789Z,66848
2017-04-26T07:52:18.441Z,63872
2017-04-26T07:53:03.851Z,64576
2017-04-26T07:54:03.584Z,63776
2017-04-26T07:55:03.613Z,62624
2017-04-26T07:56:03.652Z,60544
2017-04-26T07:57:18.609Z,34080
2017-04-26T07:58:04.066Z,18240
2017-04-26T07:59:04.062Z,61184
2017-04-26T08:00:04.093Z,62912
2017-04-26T08:01:18.748Z,63200
2017-04-26T08:02:04.165Z,61504
2017-04-26T08:03:03.590Z,59840
2017-04-26T08:04:04.230Z,61120
2017-04-26T08:05:04.268Z,61280
2017-04-26T08:06:04.302Z,58240
2017-04-26T08:07:04.338Z,56672
2017-04-26T08:08:04.369Z,58784
2017-04-26T08:09:19.025Z,56544
2017-04-26T08:10:04.464Z,58400
2017-04-26T08:11:04.502Z,59904
2017-04-26T08:12:04.542Z,53696
2017-04-26T08:15:18.926Z,11516
2017-04-26T08:16:04.672Z,23520
2017-04-26T08:17:33.924Z,54880
2017-04-26T08:18:04.710Z,54656
2017-04-26T08:20:04.787Z,10808
2017-04-26T08:21:19.437Z,11660
2017-04-26T08:22:04.555Z,10004
2017-04-26T08:23:04.580Z,9320
2017-04-26T08:24:04.915Z,9540
2017-04-26T08:25:04.944Z,9588
2017-04-26T08:26:04.975Z,10160
2017-04-26T08:27:05.008Z,23680
2017-04-26T08:28:05.041Z,23360
2017-04-26T08:29:05.369Z,16708
2017-04-26T08:30:04.847Z,10764
2017-04-26T08:31:05.132Z,9844
2017-04-26T08:32:05.174Z,9516
2017-04-26T08:33:19.812Z,9000
2017-04-26T08:34:05.224Z,8680
2017-04-26T08:35:05.258Z,8104
2017-04-26T08:36:05.290Z,7776
2017-04-26T08:38:05.346Z,11828
2017-04-26T08:39:05.376Z,10412
2017-04-26T08:40:05.408Z,10468
2017-04-26T08:41:05.436Z,22592
2017-04-26T08:42:05.461Z,11788
2017-04-26T08:43:05.525Z,12088
2017-04-26T08:44:20.143Z,11448
2017-04-26T08:45:05.245Z,11256
2017-04-26T08:46:05.588Z,10708
2017-04-26T08:47:05.606Z,10176
2017-04-26T08:48:05.633Z,9864
2017-04-26T08:49:20.278Z,9732
2017-04-26T08:50:05.693Z,9668
2017-04-26T08:51:05.721Z,9664
2017-04-26T08:52:05.751Z,11860
2017-04-26T08:53:20.396Z,10608
2017-04-26T08:54:05.802Z,10708
2017-04-26T08:55:05.833Z,10716
2017-04-26T08:56:05.856Z,10604
2017-04-26T08:57:05.882Z,10172
2017-04-26T08:58:05.911Z,9660
2017-04-26T08:59:05.936Z,8888
2017-04-26T09:00:05.967Z,8360
2017-04-26T09:01:05.993Z,8108
2017-04-26T09:02:06.019Z,7908
2017-04-26T09:03:06.080Z,8160
2017-04-26T09:04:20.691Z,8948
2017-04-26T09:05:06.099Z,8908
2017-04-26T09:06:06.124Z,8292
2017-04-26T09:07:06.154Z,8192
2017-04-26T09:08:06.187Z,8232
2017-04-26T09:09:06.204Z,18976
2017-04-26T09:10:06.228Z,19424
2017-04-26T09:11:20.574Z,19200
2017-04-26T09:12:20.903Z,18976
2017-04-26T09:13:06.308Z,17920
2017-04-26T09:14:06.339Z,15536
2017-04-26T09:15:06.369Z,12380
2017-04-26T09:17:21.039Z,18432
2017-04-26T09:18:06.445Z,18368
2017-04-26T09:20:06.501Z,18144
2017-04-26T09:21:06.524Z,18272
2017-04-26T09:22:06.556Z,18304
2017-04-26T09:23:06.585Z,8352
2017-04-26T09:24:06.302Z,18464
2017-04-26T09:25:06.640Z,18624
2017-04-26T09:26:06.673Z,18464
2017-04-26T09:27:06.695Z,18048
2017-04-26T09:28:06.719Z,17984
2017-04-26T09:29:21.366Z,18048
2017-04-26T09:30:06.782Z,16420
2017-04-26T09:31:06.803Z,18016
2017-04-26T09:32:06.834Z,18496
2017-04-26T09:33:21.478Z,18720
2017-04-26T09:34:06.887Z,18880
2017-04-26T09:35:06.919Z,18944
2017-04-26T09:36:21.565Z,18752
2017-04-26T09:37:06.973Z,18432
2017-04-26T09:38:21.631Z,18400
2017-04-26T09:39:07.035Z,18208
2017-04-26T09:40:07.063Z,17952
2017-04-26T09:41:07.093Z,17792
2017-04-26T09:42:07.127Z,17632
2017-04-26T09:43:07.181Z,17504
2017-04-26T09:44:07.188Z,17664
2017-04-26T09:45:21.828Z,17824
2017-04-26T09:46:07.238Z,17728
2017-04-26T09:47:21.887Z,17856
2017-04-26T09:48:07.304Z,17952
2017-04-26T09:49:07.329Z,17888
2017-04-26T09:50:07.055Z,17984
2017-04-26T09:52:22.035Z,18272
2017-04-26T09:53:07.447Z,18272
2017-04-26T09:54:07.472Z,9288
2017-04-26T09:55:07.507Z,8952
2017-04-26T09:56:07.533Z,8636
2017-04-26T09:57:07.562Z,8328
2017-04-26T09:58:07.590Z,8016
2017-04-26T09:59:07.622Z,7952
2017-04-26T10:00:22.270Z,7504
2017-04-26T10:01:07.677Z,7332
2017-04-26T10:02:07.736Z,7044
2017-04-26T10:03:07.752Z,6748
2017-04-26T10:04:07.459Z,6624
2017-04-26T10:05:22.408Z,6660
2017-04-26T10:06:07.820Z,6756
2017-04-26T10:07:07.847Z,6820
2017-04-26T10:08:22.498Z,6936
2017-04-26T10:10:07.628Z,15548
2017-04-26T10:11:07.958Z,15928
2017-04-26T10:12:07.679Z,16176
2017-04-26T10:13:08.012Z,16324
2017-04-26T10:14:44.244Z,16244
2017-04-26T10:17:16.327Z,15332
2017-04-26T10:18:16.348Z,15072
2017-04-26T10:20:16.400Z,15260
2017-04-26T10:21:45.672Z,15580
2017-04-26T10:22:16.462Z,9432
2017-04-26T10:23:15.879Z,8376
2017-04-26T10:24:16.513Z,8156
2017-04-26T10:25:16.540Z,8216
2017-04-26T10:26:16.566Z,8184
2017-04-26T10:27:16.597Z,8284
2017-04-26T10:29:21.655Z,8428
2017-04-26T10:29:31.169Z,8424
2017-04-26T10:30:58.586Z,8336
2017-04-26T10:31:31.527Z,8344
2017-04-26T10:32:31.555Z,8484
2017-04-26T10:33:31.602Z,8524
2017-04-26T10:34:47.562Z,12532
2017-04-26T10:35:31.633Z,15464
2017-04-26T10:36:31.658Z,15392
2017-04-26T10:37:46.301Z,15304
2017-04-26T10:38:31.712Z,15020
2017-04-26T10:39:31.435Z,12572
2017-04-26T10:40:31.463Z,8808
2017-04-26T10:41:32.406Z,8696
2017-04-26T10:42:35.700Z,9112
2017-04-26T10:43:31.852Z,9396
2017-04-26T10:44:31.875Z,9120
2017-04-26T10:45:31.896Z,9048
2017-04-26T10:46:31.927Z,8944
2017-04-26T10:47:31.951Z,8756
2017-04-26T10:48:31.985Z,8376
2017-04-26T10:49:46.316Z,7876
2017-04-26T10:50:46.647Z,7552
2017-04-26T10:51:32.064Z,7376
2017-04-26T10:52:32.083Z,7224
2017-04-26T10:53:46.121Z,7008
2017-04-26T10:54:32.135Z,6828
2017-04-26T10:55:32.160Z,6584
2017-04-26T10:56:32.184Z,6428
2017-04-26T10:57:32.212Z,6336
2017-04-26T10:58:32.237Z,6468
2017-04-26T10:59:32.263Z,6244
2017-04-26T11:00:32.289Z,6096
2017-04-26T11:01:46.982Z,5948
2017-04-26T11:02:32.340Z,5852
2017-04-26T11:03:32.366Z,5780
2017-04-26T11:04:32.396Z,5712
2017-04-26T11:05:32.416Z,5672
2017-04-26T11:06:32.145Z,5776
2017-04-26T11:07:32.469Z,6024
2017-04-26T11:09:47.135Z,6368
2017-04-26T11:10:32.546Z,6256
2017-04-26T11:11:32.571Z,6016
2017-04-26T11:12:32.595Z,5756
2017-04-26T11:13:32.621Z,5576
2017-04-26T11:14:32.646Z,5524
2017-04-26T11:15:32.673Z,5504
2017-04-26T11:16:32.697Z,5560
2017-04-26T11:17:32.720Z,5600
2017-04-26T11:18:47.364Z,5760
2017-04-26T11:19:32.774Z,6464
2017-04-26T11:20:47.414Z,7140
2017-04-26T11:21:47.439Z,6364
2017-04-26T11:22:32.849Z,6244
2017-04-26T11:23:32.874Z,8032
2017-04-26T11:25:47.539Z,8896
2017-04-26T11:26:32.951Z,9184
2017-04-26T11:27:32.977Z,7228
2017-04-26T11:28:32.998Z,7456
2017-04-26T11:29:33.026Z,7732
2017-04-26T11:30:33.051Z,8024
2017-04-26T11:31:33.074Z,8164
2017-04-26T11:32:33.101Z,8260
2017-04-26T11:33:32.820Z,8280
2017-04-26T11:34:32.845Z,8280
2017-04-26T11:35:47.793Z,8268
2017-04-26T11:36:47.816Z,8204
2017-04-26T11:37:32.927Z,8108
2017-04-26T11:38:33.250Z,7992
2017-04-26T11:40:47.626Z,9152
2017-04-26T11:42:33.352Z,9212
2017-04-26T11:43:33.389Z,9040
2017-04-26T11:44:33.403Z,8964
2017-04-26T11:45:33.428Z,9136
2017-04-26T11:46:33.455Z,9096
2017-04-26T11:47:33.482Z,9084
2017-04-26T11:48:33.502Z,9148
2017-04-26T11:49:33.530Z,9260
2017-04-26T11:50:48.168Z,9160
2017-04-26T11:51:33.577Z,9036
2017-04-26T11:53:33.626Z,8892
2017-04-26T11:55:33.674Z,8740
2017-04-26T11:56:33.399Z,8680
2017-04-26T11:57:33.728Z,8644
2017-04-26T11:58:33.749Z,8548
2017-04-26T11:59:33.783Z,7652
2017-04-26T12:00:33.801Z,8516
2017-04-26T12:01:33.826Z,8760
2017-04-26T12:02:33.855Z,8880
2017-04-26T12:03:33.879Z,8960
2017-04-26T12:04:33.901Z,9020
2017-04-26T12:05:33.930Z,9044
2017-04-26T12:06:33.958Z,8704
2017-04-26T12:07:33.981Z,8844
2017-04-26T12:08:48.623Z,8324
2017-04-26T12:09:33.726Z,8604
2017-04-26T12:10:33.754Z,8892
2017-04-26T12:11:34.077Z,8872
2017-04-26T12:12:48.720Z,9020
2017-04-26T12:13:34.131Z,9000
2017-04-26T12:14:34.161Z,9068
2017-04-26T12:16:34.234Z,9364
2017-04-26T12:17:33.929Z,8140
2017-04-26T12:18:34.254Z,9524
2017-04-26T12:19:33.980Z,9272
2017-04-26T12:20:34.312Z,7372
2017-04-26T12:21:48.950Z,7532
2017-04-26T12:22:48.975Z,7520
2017-04-26T12:23:34.382Z,7512
2017-04-26T12:24:34.410Z,7532
2017-04-26T12:25:34.435Z,7596
2017-04-26T12:26:49.075Z,7692
2017-04-26T12:28:49.127Z,7752
2017-04-26T12:29:34.534Z,7768
2017-04-26T12:31:34.585Z,7704
2017-04-26T12:32:34.615Z,7780
2017-04-26T12:33:34.634Z,7612
2017-04-26T12:34:34.659Z,7472
2017-04-26T12:35:49.306Z,7404
2017-04-26T12:36:34.712Z,7448
2017-04-26T12:37:34.736Z,7560
2017-04-26T12:38:34.768Z,7656
2017-04-26T12:39:34.788Z,7800
2017-04-26T12:40:34.816Z,8024
2017-04-26T12:41:34.844Z,7800
2017-04-26T12:42:34.868Z,7636
2017-04-26T12:43:34.896Z,7416
2017-04-26T12:44:49.528Z,7344
2017-04-26T12:45:34.939Z,7348
2017-04-26T12:46:34.964Z,7332
2017-04-26T12:47:34.988Z,7384
2017-04-26T12:48:35.013Z,7372
2017-04-26T12:49:35.037Z,7288
2017-04-26T12:50:35.065Z,7144
2017-04-26T12:51:35.087Z,7032
2017-04-26T12:52:35.120Z,6964
2017-04-26T12:53:35.139Z,6900
2017-04-26T12:54:35.170Z,6836
2017-04-26T12:55:35.191Z,6820
2017-04-26T12:56:49.829Z,6792
2017-04-26T12:57:35.244Z,6780
2017-04-26T12:58:35.263Z,6784
2017-04-26T12:59:35.286Z,6824
2017-04-26T13:00:49.931Z,6932
2017-04-26T13:01:35.349Z,7004
2017-04-26T13:02:35.367Z,7116
2017-04-26T13:03:35.388Z,7236
2017-04-26T13:04:35.413Z,7296
2017-04-26T13:05:35.439Z,7328
2017-04-26T13:06:35.465Z,7364
2017-04-26T13:07:35.487Z,7372
2017-04-26T13:08:35.519Z,7404
2017-04-26T13:09:50.154Z,7408
2017-04-26T13:10:35.564Z,7488
2017-04-26T13:12:35.612Z,8976
2017-04-26T13:13:35.635Z,9320
2017-04-26T13:15:50.308Z,8868
2017-04-26T13:16:35.409Z,8996
2017-04-26T13:17:35.436Z,9480
2017-04-26T13:18:35.766Z,9152
2017-04-26T13:19:35.791Z,7584
2017-04-26T13:20:35.814Z,7444
2017-04-26T13:21:35.533Z,7412
2017-04-26T13:22:35.890Z,7396
2017-04-26T13:23:50.506Z,7416
2017-04-26T13:24:50.530Z,7284
2017-04-26T13:25:35.937Z,7472
2017-04-26T13:26:35.657Z,7536
2017-04-26T13:27:36.018Z,7608
2017-04-26T13:28:50.633Z,7104
2017-04-26T13:29:36.038Z,6552
2017-04-26T13:30:36.062Z,6380
2017-04-26T13:32:36.114Z,6744
2017-04-26T13:34:36.163Z,7436
2017-04-26T13:35:36.188Z,7508
2017-04-26T13:36:36.215Z,7344
2017-04-26T13:37:36.242Z,7248
2017-04-26T13:38:35.656Z,7212
2017-04-26T13:39:36.289Z,7180
2017-04-26T13:40:36.311Z,7252
2017-04-26T13:41:36.340Z,7340
2017-04-26T13:42:36.370Z,7416
2017-04-26T13:43:36.386Z,7368
2017-04-26T13:44:36.412Z,7176
2017-04-26T13:45:36.438Z,7008
2017-04-26T13:46:36.464Z,6892
2017-04-26T13:47:51.104Z,6776
2017-04-26T13:49:36.540Z,6748
2017-04-26T13:50:36.258Z,6924
2017-04-26T13:51:36.596Z,7176
2017-04-26T13:52:36.618Z,7580
2017-04-26T13:53:36.638Z,8428
2017-04-26T13:54:36.658Z,8520
2017-04-26T13:55:36.386Z,8740
2017-04-26T13:56:36.711Z,8804
2017-04-26T13:57:36.431Z,7452
2017-04-26T13:58:36.762Z,8128
2017-04-26T13:59:51.402Z,7708
2017-04-26T14:00:36.811Z,7824
2017-04-26T14:01:36.833Z,6512
2017-04-26T14:02:36.859Z,6312
2017-04-26T14:03:51.500Z,6112
2017-04-26T14:04:36.606Z,5920
2017-04-26T14:05:36.935Z,5632
2017-04-26T14:06:36.958Z,5372
2017-04-26T14:07:36.981Z,5156
2017-04-26T14:08:37.005Z,4976
2017-04-26T14:09:37.031Z,4856
2017-04-26T14:10:51.676Z,4756
2017-04-26T14:11:51.698Z,4696
2017-04-26T14:12:36.800Z,4660
2017-04-26T14:13:37.130Z,4648
2017-04-26T14:14:37.157Z,4656
2017-04-26T14:15:37.178Z,4716
2017-04-26T14:16:37.203Z,4824
2017-04-26T14:17:37.229Z,5116
2017-04-26T14:18:37.251Z,5088
2017-04-26T14:19:51.893Z,5276
2017-04-26T14:20:37.302Z,5376
2017-04-26T14:22:37.353Z,5644
2017-04-26T14:23:37.373Z,5704
2017-04-26T14:24:37.095Z,5732
2017-04-26T14:25:51.738Z,5728
2017-04-26T14:26:37.448Z,5716